Time;durP1;ratioP1;P1;durP2;ratioP2;P2;SDS_P1;SDS_P2;PMS_P1;PMS_P2;Temp;Humidity;BMP_temperature;BMP_pressure;BME280_temperature;BME280_humidity;BME280_pressure;Samples;Min_cycle;Max_cycle;Signal;HPM_P1;HPM_P2
2019/12/11 00:02:08;;;;;;;4.49;3.33;;;;;;;19.61;40.48;100942.17;;;;-50
2019/12/11 00:05:08;;;;;;;4.33;3.35;;;;;;;19.60;40.51;100936.75;;;;-50
2019/12/11 00:08:08;;;;;;;4.47;3.38;;;;;;;19.59;40.50;100935.30;;;;-50
2019/12/11 00:11:08;;;;;;;5.27;3.47;;;;;;;19.58;40.51;100930.38;;;;-51
2019/12/11 00:14:08;;;;;;;3.93;3.27;;;;;;;19.57;40.47;100929.49;;;;-48
2019/12/11 00:23:08;;;;;;;3.63;2.94;;;;;;;19.54;40.47;100904.94;;;;-50
2019/12/11 00:26:10;;;;;;;4.38;3.18;;;;;;;19.54;40.49;100895.06;;;;-50
2019/12/11 00:29:08;;;;;;;4.43;3.27;;;;;;;19.52;40.52;100887.92;;;;-50
2019/12/11 00:32:08;;;;;;;4.10;3.21;;;;;;;19.51;40.53;100894.23;;;;-50
2019/12/11 00:35:08;;;;;;;4.11;3.25;;;;;;;19.50;40.53;100884.91;;;;-50
2019/12/11 00:38:08;;;;;;;4.51;3.13;;;;;;;19.49;40.54;100876.83;;;;-50
2019/12/11 00:41:08;;;;;;;4.10;3.08;;;;;;;19.48;40.55;100867.38;;;;-50
2019/12/11 00:44:08;;;;;;;5.11;3.22;;;;;;;19.47;40.50;100862.98;;;;-50
2019/12/11 00:47:08;;;;;;;4.79;3.21;;;;;;;19.46;40.56;100859.80;;;;-50
2019/12/11 00:50:08;;;;;;;3.85;3.11;;;;;;;19.45;40.56;100855.67;;;;-50
2019/12/11 00:53:08;;;;;;;3.83;3.07;;;;;;;19.44;40.62;100845.34;;;;-50
2019/12/11 00:56:08;;;;;;;4.08;3.25;;;;;;;19.44;40.56;100842.72;;;;-50
2019/12/11 00:59:08;;;;;;;4.07;3.15;;;;;;;19.43;40.54;100844.41;;;;-50
2019/12/11 01:02:08;;;;;;;4.75;2.98;;;;;;;19.43;40.54;100842.73;;;;-50
2019/12/11 01:05:08;;;;;;;4.22;3.11;;;;;;;19.40;40.60;100836.59;;;;-49
2019/12/11 01:08:08;;;;;;;3.61;2.88;;;;;;;19.40;40.56;100828.22;;;;-50
2019/12/11 01:11:08;;;;;;;4.31;3.09;;;;;;;19.39;40.54;100822.77;;;;-50
2019/12/11 01:14:10;;;;;;;4.28;3.17;;;;;;;19.38;40.57;100817.56;;;;-50
2019/12/11 01:20:26;;;;;;;4.31;3.11;;;;;;;19.36;40.56;100799.61;;;;-50
2019/12/11 01:23:08;;;;;;;4.39;3.32;;;;;;;19.34;40.57;100791.17;;;;-50
2019/12/11 01:26:08;;;;;;;3.25;2.74;;;;;;;19.35;40.58;100789.44;;;;-50
2019/12/11 01:29:08;;;;;;;3.90;3.09;;;;;;;19.34;40.62;100791.23;;;;-50
2019/12/11 01:32:08;;;;;;;3.33;3.02;;;;;;;19.33;40.60;100782.64;;;;-50
2019/12/11 01:35:08;;;;;;;4.13;3.01;;;;;;;19.31;40.54;100780.64;;;;-50
2019/12/11 01:38:08;;;;;;;3.95;2.94;;;;;;;19.30;40.59;100779.92;;;;-50
2019/12/11 01:41:08;;;;;;;4.02;2.97;;;;;;;19.29;40.52;100774.34;;;;-50
2019/12/11 01:44:08;;;;;;;3.85;3.31;;;;;;;19.29;40.58;100776.31;;;;-50
2019/12/11 01:47:08;;;;;;;3.82;3.05;;;;;;;19.28;40.53;100774.42;;;;-50
2019/12/11 01:50:08;;;;;;;3.66;2.99;;;;;;;19.26;40.61;100765.31;;;;-50
2019/12/11 01:53:08;;;;;;;3.04;2.71;;;;;;;19.26;40.58;100761.97;;;;-50
2019/12/11 01:56:08;;;;;;;3.31;2.89;;;;;;;19.25;40.60;100761.48;;;;-50
2019/12/11 01:59:08;;;;;;;4.16;2.78;;;;;;;19.25;40.65;100759.30;;;;-50
2019/12/11 02:02:14;;;;;;;3.89;3.03;;;;;;;19.24;40.55;100756.01;;;;-50
2019/12/11 02:05:08;;;;;;;3.60;2.97;;;;;;;19.23;40.59;100752.27;;;;-50
2019/12/11 02:08:08;;;;;;;3.37;2.85;;;;;;;19.22;40.62;100749.61;;;;-50
2019/12/11 02:11:08;;;;;;;4.29;3.06;;;;;;;19.22;40.57;100746.19;;;;-50
2019/12/11 02:14:08;;;;;;;3.79;2.73;;;;;;;19.20;40.60;100730.36;;;;-50
2019/12/11 02:17:08;;;;;;;4.02;2.91;;;;;;;19.20;40.58;100725.91;;;;-50
2019/12/11 02:20:08;;;;;;;3.77;2.91;;;;;;;19.19;40.61;100715.08;;;;-50
2019/12/11 02:23:08;;;;;;;3.43;2.79;;;;;;;19.19;40.61;100712.16;;;;-50
2019/12/11 02:26:08;;;;;;;3.68;2.78;;;;;;;19.18;40.57;100708.55;;;;-50
2019/12/11 02:29:08;;;;;;;3.34;2.80;;;;;;;19.16;40.64;100702.69;;;;-50
2019/12/11 02:32:08;;;;;;;3.37;2.85;;;;;;;19.16;40.55;100694.83;;;;-50
2019/12/11 02:35:08;;;;;;;3.61;2.63;;;;;;;19.16;40.60;100690.94;;;;-50
2019/12/11 02:38:08;;;;;;;3.69;2.95;;;;;;;19.15;40.58;100682.83;;;;-50
2019/12/11 02:41:08;;;;;;;3.29;2.65;;;;;;;19.14;40.59;100672.36;;;;-50
2019/12/11 02:44:08;;;;;;;3.31;2.67;;;;;;;19.13;40.57;100667.58;;;;-50
2019/12/11 02:53:15;;;;;;;3.15;2.85;;;;;;;19.10;40.63;100651.24;;;;-50
2019/12/11 02:56:08;;;;;;;4.01;3.02;;;;;;;19.09;40.60;100645.39;;;;-50
2019/12/11 02:59:08;;;;;;;3.64;2.78;;;;;;;19.09;40.56;100645.62;;;;-50
2019/12/11 03:02:08;;;;;;;3.15;2.68;;;;;;;19.08;40.56;100645.18;;;;-50
2019/12/11 03:05:08;;;;;;;3.38;2.81;;;;;;;19.08;40.53;100645.24;;;;-50
2019/12/11 03:08:08;;;;;;;3.11;2.59;;;;;;;19.07;40.55;100640.95;;;;-50
2019/12/11 03:11:08;;;;;;;3.75;2.83;;;;;;;19.06;40.53;100632.19;;;;-49
2019/12/11 03:14:08;;;;;;;3.39;2.76;;;;;;;19.05;40.58;100632.25;;;;-50
2019/12/11 03:17:08;;;;;;;4.17;2.91;;;;;;;19.04;40.61;100625.47;;;;-50
2019/12/11 03:20:08;;;;;;;3.75;2.93;;;;;;;19.05;40.58;100623.17;;;;-49
2019/12/11 03:23:08;;;;;;;3.19;2.59;;;;;;;19.03;40.55;100621.10;;;;-50
2019/12/11 03:26:08;;;;;;;3.42;2.78;;;;;;;19.03;40.60;100617.41;;;;-50
2019/12/11 03:29:08;;;;;;;3.25;2.56;;;;;;;19.02;40.64;100613.24;;;;-50
2019/12/11 03:32:14;;;;;;;3.29;2.75;;;;;;;19.01;40.56;100601.31;;;;-50
2019/12/11 03:35:08;;;;;;;3.59;2.93;;;;;;;19.01;40.63;100590.27;;;;-50
2019/12/11 03:38:08;;;;;;;3.29;2.80;;;;;;;19.01;40.61;100581.73;;;;-50
2019/12/11 03:41:08;;;;;;;3.17;2.81;;;;;;;18.98;40.62;100577.58;;;;-50
2019/12/11 03:44:08;;;;;;;3.61;2.83;;;;;;;18.98;40.60;100577.34;;;;-50
2019/12/11 03:47:08;;;;;;;3.97;2.90;;;;;;;18.97;40.60;100570.00;;;;-50
2019/12/11 03:50:08;;;;;;;3.57;2.71;;;;;;;18.96;40.59;100565.70;;;;-50
2019/12/11 03:53:08;;;;;;;4.25;2.71;;;;;;;18.96;40.58;100559.91;;;;-50
2019/12/11 03:56:12;;;;;;;3.25;2.84;;;;;;;18.95;40.56;100553.32;;;;-50
2019/12/11 04:01:13;;;;;;;3.21;2.85;;;;;;;18.95;40.58;100551.92;;;;-50
2019/12/11 04:04:51;;;;;;;3.47;2.55;;;;;;;18.95;40.60;100549.41;;;;-50
2019/12/11 04:08:08;;;;;;;3.79;2.83;;;;;;;18.95;40.61;100547.91;;;;-50
2019/12/11 04:11:08;;;;;;;3.58;2.63;;;;;;;18.95;40.64;100546.73;;;;-50
2019/12/11 04:14:08;;;;;;;2.96;2.60;;;;;;;18.95;40.66;100540.81;;;;-50
2019/12/11 04:17:08;;;;;;;3.42;2.50;;;;;;;18.96;40.65;100538.31;;;;-50
2019/12/11 04:20:08;;;;;;;3.77;2.71;;;;;;;18.97;40.70;100539.81;;;;-49
2019/12/11 04:23:08;;;;;;;3.71;2.77;;;;;;;18.98;40.65;100536.57;;;;-50
2019/12/11 04:26:08;;;;;;;3.99;2.84;;;;;;;18.99;40.65;100537.63;;;;-50
2019/12/11 04:29:08;;;;;;;3.08;2.74;;;;;;;19.00;40.68;100540.95;;;;-50
2019/12/11 04:32:08;;;;;;;2.93;2.59;;;;;;;19.01;40.58;100536.20;;;;-50
2019/12/11 04:35:08;;;;;;;3.48;2.68;;;;;;;19.01;40.61;100528.11;;;;-49
2019/12/11 04:38:08;;;;;;;3.64;2.71;;;;;;;19.02;40.62;100529.49;;;;-50
2019/12/11 04:41:08;;;;;;;3.35;2.49;;;;;;;19.03;40.63;100535.06;;;;-50
2019/12/11 04:44:08;;;;;;;3.39;2.59;;;;;;;19.03;40.63;100540.33;;;;-50
2019/12/11 04:47:43;;;;;;;3.09;2.69;;;;;;;19.03;40.68;100538.48;;;;-50
2019/12/11 04:50:31;;;;;;;3.28;2.65;;;;;;;19.04;40.63;100539.19;;;;-50
2019/12/11 04:53:09;;;;;;;3.13;2.65;;;;;;;19.04;40.61;100539.03;;;;-50
2019/12/11 04:56:08;;;;;;;3.02;2.62;;;;;;;19.05;40.64;100538.06;;;;-50
2019/12/11 04:59:08;;;;;;;3.61;2.69;;;;;;;19.05;40.66;100533.12;;;;-50
2019/12/11 05:02:08;;;;;;;2.83;2.52;;;;;;;19.05;40.68;100530.88;;;;-50
2019/12/11 05:05:08;;;;;;;2.90;2.54;;;;;;;19.06;40.64;100524.89;;;;-50
2019/12/11 05:08:08;;;;;;;2.81;2.37;;;;;;;19.06;40.66;100525.67;;;;-50
2019/12/11 05:11:08;;;;;;;3.11;2.61;;;;;;;19.06;40.66;100518.60;;;;-50
2019/12/11 05:14:08;;;;;;;3.21;2.57;;;;;;;19.07;40.62;100524.17;;;;-50
2019/12/11 05:17:08;;;;;;;2.60;2.40;;;;;;;19.05;40.63;100515.58;;;;-50
2019/12/11 05:20:08;;;;;;;3.35;2.65;;;;;;;19.06;40.57;100503.80;;;;-50
2019/12/11 05:23:08;;;;;;;3.19;2.81;;;;;;;19.06;40.61;100495.77;;;;-50
2019/12/11 05:26:09;;;;;;;2.76;2.44;;;;;;;19.05;40.59;100495.66;;;;-50
2019/12/11 05:29:08;;;;;;;3.70;2.81;;;;;;;19.05;40.59;100494.28;;;;-50
2019/12/11 05:32:08;;;;;;;4.76;2.71;;;;;;;19.05;40.56;100492.88;;;;-50
2019/12/11 05:35:08;;;;;;;3.11;2.37;;;;;;;19.05;40.56;100492.21;;;;-50
2019/12/11 05:38:08;;;;;;;2.86;2.55;;;;;;;19.05;40.53;100487.86;;;;-50
2019/12/11 05:41:08;;;;;;;2.81;2.45;;;;;;;19.04;40.53;100491.16;;;;-50
2019/12/11 05:44:08;;;;;;;3.12;2.75;;;;;;;19.04;40.57;100487.91;;;;-50
2019/12/11 05:47:08;;;;;;;2.83;2.46;;;;;;;19.04;40.52;100486.88;;;;-50
2019/12/11 05:50:08;;;;;;;4.45;2.62;;;;;;;19.04;40.57;100480.89;;;;-51
2019/12/11 05:53:08;;;;;;;3.55;2.55;;;;;;;19.06;40.62;100480.03;;;;-49
2019/12/11 05:56:08;;;;;;;4.07;2.68;;;;;;;19.06;40.60;100480.31;;;;-51
2019/12/11 05:59:08;;;;;;;4.57;2.81;;;;;;;19.08;40.57;100474.94;;;;-51
2019/12/11 06:02:08;;;;;;;2.99;2.49;;;;;;;19.07;40.51;100471.04;;;;-51
2019/12/11 06:05:08;;;;;;;3.13;2.59;;;;;;;19.06;40.47;100473.95;;;;-51
2019/12/11 06:08:08;;;;;;;3.05;2.59;;;;;;;19.06;40.50;100464.31;;;;-51
2019/12/11 06:11:08;;;;;;;3.55;2.68;;;;;;;19.06;40.48;100460.19;;;;-51
2019/12/11 06:14:08;;;;;;;3.56;2.61;;;;;;;19.06;40.48;100454.26;;;;-50
2019/12/11 06:17:08;;;;;;;3.59;2.78;;;;;;;19.05;40.47;100459.73;;;;-51
2019/12/11 06:23:46;;;;;;;4.87;2.68;;;;;;;19.05;40.43;100458.13;;;;-51
2019/12/11 06:26:08;;;;;;;3.18;2.65;;;;;;;19.05;40.46;100460.91;;;;-47
2019/12/11 06:29:08;;;;;;;3.47;2.67;;;;;;;19.06;40.68;100458.34;;;;-50
2019/12/11 06:32:08;;;;;;;4.51;2.69;;;;;;;19.05;40.78;100456.16;;;;-46
2019/12/11 06:35:08;;;;;;;4.01;2.61;;;;;;;19.08;40.95;100453.41;;;;-52
2019/12/11 06:38:08;;;;;;;3.19;2.59;;;;;;;19.09;40.87;100446.20;;;;-48
2019/12/11 06:41:08;;;;;;;7.57;2.90;;;;;;;19.10;41.03;100436.64;;;;-45
2019/12/11 06:44:08;;;;;;;3.66;2.85;;;;;;;19.12;41.05;100437.41;;;;-49
2019/12/11 06:47:08;;;;;;;4.03;2.55;;;;;;;19.12;41.01;100438.03;;;;-49
2019/12/11 06:50:08;;;;;;;3.83;2.58;;;;;;;19.12;41.03;100433.27;;;;-49
2019/12/11 06:53:08;;;;;;;3.56;2.54;;;;;;;19.11;40.92;100427.48;;;;-49
2019/12/11 06:59:08;;;;;;;3.53;2.63;;;;;;;19.10;40.72;100417.72;;;;-49
2019/12/11 07:02:08;;;;;;;2.96;2.62;;;;;;;19.12;40.74;100417.54;;;;-48
2019/12/11 07:05:08;;;;;;;4.38;2.81;;;;;;;19.11;40.70;100411.53;;;;-51
2019/12/11 07:08:08;;;;;;;3.19;2.58;;;;;;;19.09;40.67;100406.80;;;;-48
2019/12/11 07:11:08;;;;;;;3.67;2.45;;;;;;;19.12;40.64;100407.39;;;;-48
2019/12/11 07:14:08;;;;;;;3.65;2.53;;;;;;;19.11;40.64;100404.21;;;;-51
2019/12/11 07:17:45;;;;;;;4.13;2.59;;;;;;;19.11;40.70;100397.73;;;;-49
2019/12/11 07:20:08;;;;;;;5.36;2.77;;;;;;;19.10;40.79;100390.11;;;;-48
2019/12/11 07:23:08;;;;;;;4.57;2.76;;;;;;;19.10;40.72;100387.81;;;;-46
2019/12/11 07:26:08;;;;;;;5.35;2.73;;;;;;;19.10;40.69;100378.02;;;;-44
2019/12/11 07:29:08;;;;;;;4.21;2.63;;;;;;;19.11;40.66;100374.88;;;;-48
2019/12/11 07:32:08;;;;;;;4.51;2.71;;;;;;;19.11;40.50;100372.97;;;;-43
2019/12/11 07:35:08;;;;;;;4.37;2.78;;;;;;;19.12;40.53;100369.90;;;;-51
2019/12/11 07:38:08;;;;;;;5.57;2.99;;;;;;;19.11;40.29;100371.73;;;;-52
2019/12/11 07:41:08;;;;;;;5.57;3.01;;;;;;;19.12;40.30;100371.74;;;;-49
2019/12/11 07:44:08;;;;;;;5.42;3.13;;;;;;;19.13;40.17;100371.28;;;;-56
2019/12/11 07:47:08;;;;;;;4.34;2.93;;;;;;;19.13;40.16;100365.73;;;;-55
2019/12/11 07:50:08;;;;;;;4.55;2.99;;;;;;;19.13;40.24;100361.98;;;;-50
2019/12/11 07:53:08;;;;;;;5.70;3.09;;;;;;;19.14;40.08;100361.86;;;;-51
2019/12/11 07:56:08;;;;;;;6.89;2.81;;;;;;;19.15;40.16;100351.76;;;;-52
2019/12/11 07:59:08;;;;;;;6.19;3.29;;;;;;;19.14;40.09;100348.77;;;;-52
2019/12/11 08:02:08;;;;;;;4.11;2.76;;;;;;;19.15;39.90;100343.85;;;;-48
2019/12/11 08:05:08;;;;;;;5.71;3.04;;;;;;;19.14;39.97;100339.83;;;;-63
2019/12/11 08:08:08;;;;;;;4.13;2.76;;;;;;;19.13;40.01;100339.28;;;;-51
2019/12/11 08:11:08;;;;;;;3.85;2.91;;;;;;;19.12;40.08;100331.00;;;;-52
2019/12/11 08:14:08;;;;;;;6.31;3.20;;;;;;;19.13;40.00;100328.83;;;;-52
2019/12/11 08:17:08;;;;;;;3.29;2.65;;;;;;;19.13;40.05;100325.48;;;;-51
2019/12/11 08:20:08;;;;;;;4.12;3.08;;;;;;;19.11;40.01;100321.19;;;;-51
2019/12/11 08:23:08;;;;;;;4.22;2.91;;;;;;;19.12;40.02;100316.94;;;;-51
2019/12/11 08:26:08;;;;;;;4.79;2.99;;;;;;;19.11;40.08;100312.14;;;;-62
2019/12/11 08:29:08;;;;;;;4.77;2.83;;;;;;;19.11;40.11;100302.17;;;;-52
2019/12/11 08:32:08;;;;;;;4.65;2.81;;;;;;;19.11;40.02;100300.56;;;;-52
2019/12/11 08:35:09;;;;;;;5.19;2.81;;;;;;;19.10;40.00;100300.61;;;;-48
2019/12/11 08:38:08;;;;;;;3.45;2.77;;;;;;;19.09;40.04;100300.34;;;;-47
2019/12/11 08:41:08;;;;;;;5.75;3.09;;;;;;;19.09;40.00;100303.25;;;;-63
2019/12/11 08:44:08;;;;;;;3.77;3.03;;;;;;;19.08;40.02;100298.52;;;;-62
2019/12/11 08:47:08;;;;;;;3.86;2.62;;;;;;;19.09;40.01;100294.20;;;;-62
2019/12/11 08:50:09;;;;;;;4.39;2.86;;;;;;;19.09;39.92;100304.83;;;;-48
2019/12/11 08:53:10;;;;;;;4.00;2.68;;;;;;;19.08;40.00;100292.66;;;;-47
2019/12/11 08:56:32;;;;;;;4.86;2.75;;;;;;;19.08;39.97;100287.38;;;;-52
2019/12/11 08:59:08;;;;;;;4.43;2.85;;;;;;;19.07;40.00;100286.76;;;;-62
2019/12/11 09:02:08;;;;;;;3.57;2.61;;;;;;;19.06;40.03;100277.95;;;;-52
2019/12/11 09:05:08;;;;;;;4.39;2.63;;;;;;;19.05;40.17;100271.17;;;;-43
2019/12/11 09:08:08;;;;;;;4.26;2.76;;;;;;;19.05;40.11;100267.49;;;;-51
2019/12/11 09:11:09;;;;;;;4.71;2.85;;;;;;;19.04;40.23;100263.53;;;;-52
2019/12/11 09:14:08;;;;;;;4.36;2.89;;;;;;;19.05;39.89;100259.56;;;;-50
2019/12/11 09:17:08;;;;;;;4.04;2.91;;;;;;;19.04;39.95;100256.11;;;;-50
2019/12/11 09:20:08;;;;;;;4.45;3.02;;;;;;;19.05;39.91;100259.05;;;;-50
2019/12/11 09:23:08;;;;;;;4.90;2.83;;;;;;;19.04;39.90;100253.27;;;;-50
2019/12/11 09:26:08;;;;;;;3.76;2.74;;;;;;;19.03;39.80;100249.27;;;;-50
2019/12/11 09:31:11;;;;;;;3.97;2.89;;;;;;;19.03;39.78;100244.91;;;;-50
2019/12/11 09:33:14;;;;;;;4.05;2.76;;;;;;;19.01;39.66;100242.48;;;;-50
2019/12/11 09:36:08;;;;;;;4.57;2.69;;;;;;;19.00;39.71;100243.88;;;;-50
2019/12/11 09:39:08;;;;;;;3.38;2.70;;;;;;;19.00;39.73;100230.05;;;;-50
2019/12/11 09:42:08;;;;;;;3.05;2.71;;;;;;;18.99;39.76;100224.59;;;;-50
2019/12/11 09:45:08;;;;;;;4.15;2.81;;;;;;;18.99;39.80;100219.73;;;;-50
2019/12/11 09:48:08;;;;;;;3.76;2.76;;;;;;;18.98;39.83;100216.52;;;;-50
2019/12/11 09:51:08;;;;;;;4.87;2.75;;;;;;;18.97;39.82;100211.45;;;;-50
2019/12/11 09:54:08;;;;;;;3.67;2.73;;;;;;;18.97;39.85;100200.91;;;;-50
2019/12/11 09:57:08;;;;;;;4.30;2.80;;;;;;;18.94;39.91;100185.56;;;;-50
2019/12/11 10:00:08;;;;;;;3.47;2.63;;;;;;;18.95;39.90;100179.23;;;;-50
2019/12/11 10:03:08;;;;;;;3.07;2.62;;;;;;;18.95;39.86;100170.88;;;;-50
2019/12/11 10:06:08;;;;;;;3.97;2.71;;;;;;;18.95;39.90;100162.23;;;;-50
2019/12/11 10:09:09;;;;;;;3.14;2.57;;;;;;;18.94;40.03;100157.11;;;;-50
2019/12/11 10:12:08;;;;;;;3.91;2.79;;;;;;;18.94;39.96;100156.44;;;;-50
2019/12/11 10:15:08;;;;;;;4.43;2.56;;;;;;;18.93;39.91;100152.15;;;;-50
2019/12/11 10:18:08;;;;;;;3.16;2.50;;;;;;;18.92;39.92;100141.80;;;;-50
2019/12/11 10:21:08;;;;;;;3.92;2.50;;;;;;;18.92;39.91;100123.66;;;;-50
2019/12/11 10:24:08;;;;;;;2.71;2.38;;;;;;;18.92;39.92;100124.57;;;;-50
2019/12/11 10:27:08;;;;;;;3.23;2.72;;;;;;;18.92;39.96;100120.81;;;;-50
2019/12/11 10:30:08;;;;;;;3.46;2.71;;;;;;;18.92;39.97;100124.13;;;;-50
2019/12/11 10:33:08;;;;;;;3.33;2.51;;;;;;;18.91;39.92;100124.19;;;;-50
2019/12/11 10:36:08;;;;;;;3.84;2.69;;;;;;;18.90;39.97;100113.88;;;;-50
2019/12/11 10:39:10;;;;;;;2.95;2.52;;;;;;;18.91;39.94;100100.53;;;;-50
2019/12/11 10:42:08;;;;;;;4.26;2.67;;;;;;;18.90;39.93;100095.47;;;;-50
2019/12/11 10:45:08;;;;;;;3.43;2.67;;;;;;;18.90;39.97;100096.47;;;;-50
2019/12/11 10:48:08;;;;;;;3.33;2.53;;;;;;;18.90;40.03;100087.00;;;;-50
2019/12/11 10:51:08;;;;;;;3.92;2.63;;;;;;;18.89;39.98;100083.78;;;;-50
2019/12/11 10:54:08;;;;;;;3.37;2.57;;;;;;;18.89;40.02;100081.11;;;;-50
2019/12/11 10:57:08;;;;;;;4.67;2.66;;;;;;;18.89;40.00;100081.61;;;;-50
2019/12/11 11:00:11;;;;;;;3.67;2.62;;;;;;;18.89;40.05;100084.45;;;;-50
2019/12/11 11:03:21;;;;;;;4.05;2.41;;;;;;;18.88;40.04;100083.67;;;;-50
2019/12/11 11:06:13;;;;;;;2.95;2.45;;;;;;;18.88;40.06;100082.91;;;;-50
2019/12/11 11:09:18;;;;;;;4.99;2.57;;;;;;;18.88;40.04;100065.40;;;;-50
2019/12/11 11:12:08;;;;;;;3.91;2.53;;;;;;;18.87;40.07;100064.66;;;;-50
2019/12/11 11:15:08;;;;;;;3.15;2.52;;;;;;;18.87;40.11;100058.30;;;;-50
2019/12/11 11:18:08;;;;;;;3.27;2.60;;;;;;;18.87;40.05;100052.41;;;;-50
2019/12/11 11:21:08;;;;;;;2.87;2.46;;;;;;;18.87;40.08;100047.09;;;;-50
2019/12/11 11:24:08;;;;;;;3.01;2.55;;;;;;;18.86;40.09;100033.91;;;;-50
2019/12/11 11:27:08;;;;;;;3.02;2.57;;;;;;;18.86;40.12;100020.75;;;;-50
2019/12/11 11:30:08;;;;;;;2.84;2.47;;;;;;;18.86;40.12;100009.77;;;;-50
2019/12/11 11:33:08;;;;;;;3.55;2.50;;;;;;;18.85;40.12;99993.27;;;;-50
2019/12/11 11:36:08;;;;;;;2.86;2.40;;;;;;;18.85;40.13;99987.19;;;;-50
2019/12/11 11:39:08;;;;;;;3.34;2.58;;;;;;;18.86;40.12;99995.05;;;;-50
2019/12/11 11:42:08;;;;;;;3.84;2.57;;;;;;;18.84;40.12;99998.95;;;;-50
2019/12/11 11:45:08;;;;;;;4.59;2.48;;;;;;;18.84;40.15;100001.47;;;;-51
2019/12/11 11:48:08;;;;;;;3.27;2.59;;;;;;;18.84;40.14;99997.45;;;;-50
2019/12/11 11:51:08;;;;;;;2.81;2.51;;;;;;;18.84;40.14;99997.08;;;;-50
2019/12/11 11:54:08;;;;;;;3.15;2.41;;;;;;;18.84;40.18;100001.87;;;;-50
2019/12/11 11:57:08;;;;;;;2.93;2.40;;;;;;;18.83;40.18;100002.50;;;;-50
2019/12/11 12:00:09;;;;;;;3.34;2.51;;;;;;;18.83;40.20;100001.12;;;;-50
2019/12/11 12:03:08;;;;;;;3.57;2.45;;;;;;;18.82;40.17;99991.21;;;;-50
2019/12/11 12:06:08;;;;;;;2.98;2.40;;;;;;;18.81;40.19;99988.47;;;;-50
2019/12/11 12:09:08;;;;;;;2.96;2.58;;;;;;;18.82;40.21;99993.22;;;;-50
2019/12/11 12:12:08;;;;;;;3.42;2.63;;;;;;;18.82;40.23;99979.77;;;;-51
2019/12/11 12:15:08;;;;;;;3.89;2.36;;;;;;;18.80;40.24;99951.36;;;;-51
2019/12/11 12:18:08;;;;;;;2.71;2.30;;;;;;;18.80;40.21;99943.99;;;;-51
2019/12/11 12:21:08;;;;;;;2.93;2.52;;;;;;;18.79;40.22;99938.54;;;;-51
2019/12/11 12:24:08;;;;;;;4.41;2.59;;;;;;;18.80;40.22;99931.95;;;;-51
2019/12/11 12:27:08;;;;;;;2.92;2.49;;;;;;;18.79;40.23;99924.22;;;;-51
2019/12/11 12:30:08;;;;;;;3.11;2.53;;;;;;;18.79;40.24;99920.44;;;;-50
2019/12/11 12:33:08;;;;;;;3.09;2.27;;;;;;;18.78;40.22;99918.82;;;;-50
2019/12/11 12:36:08;;;;;;;3.51;2.46;;;;;;;18.77;40.25;99916.71;;;;-49
2019/12/11 12:39:08;;;;;;;2.76;2.45;;;;;;;18.78;40.27;99913.80;;;;-57
2019/12/11 12:42:08;;;;;;;3.08;2.33;;;;;;;18.77;40.28;99914.60;;;;-51
2019/12/11 12:45:08;;;;;;;2.65;2.41;;;;;;;18.77;40.24;99908.91;;;;-51
2019/12/11 12:48:12;;;;;;;3.11;2.53;;;;;;;18.77;40.25;99907.24;;;;-47
2019/12/11 12:51:08;;;;;;;3.37;2.43;;;;;;;18.76;40.28;99895.16;;;;-50
2019/12/11 12:54:08;;;;;;;3.39;2.33;;;;;;;18.76;40.26;99894.09;;;;-51
2019/12/11 12:57:08;;;;;;;3.49;2.22;;;;;;;18.75;40.29;99889.84;;;;-57
2019/12/11 13:00:08;;;;;;;3.11;2.34;;;;;;;18.75;40.30;99872.64;;;;-51
2019/12/11 13:03:08;;;;;;;2.87;2.23;;;;;;;18.75;40.28;99861.34;;;;-51
2019/12/11 13:06:08;;;;;;;2.59;2.25;;;;;;;18.75;40.27;99857.25;;;;-50
2019/12/11 13:09:08;;;;;;;3.71;2.70;;;;;;;18.74;40.28;99846.24;;;;-56
2019/12/11 13:12:08;;;;;;;2.37;2.17;;;;;;;18.74;40.29;99849.98;;;;-55
2019/12/11 13:15:08;;;;;;;2.97;2.33;;;;;;;18.74;40.29;99844.91;;;;-56
2019/12/11 13:18:08;;;;;;;2.77;2.41;;;;;;;18.73;40.26;99845.03;;;;-55
2019/12/11 13:21:08;;;;;;;2.57;2.37;;;;;;;18.73;40.35;99846.14;;;;-56
2019/12/11 13:24:08;;;;;;;3.51;2.35;;;;;;;18.73;40.30;99848.81;;;;-55
2019/12/11 13:27:08;;;;;;;2.66;2.31;;;;;;;18.73;40.32;99860.02;;;;-56
2019/12/11 13:30:08;;;;;;;2.75;2.33;;;;;;;18.72;40.31;99852.25;;;;-56
2019/12/11 13:33:08;;;;;;;2.76;2.38;;;;;;;18.72;40.31;99840.48;;;;-57
2019/12/11 13:36:08;;;;;;;2.55;2.19;;;;;;;18.72;40.29;99834.95;;;;-56
2019/12/11 13:39:08;;;;;;;2.91;2.30;;;;;;;18.72;40.33;99833.95;;;;-56
2019/12/11 13:42:08;;;;;;;2.79;2.29;;;;;;;18.71;40.33;99830.91;;;;-55
2019/12/11 13:45:08;;;;;;;2.65;2.31;;;;;;;18.71;40.33;99832.25;;;;-55
2019/12/11 13:48:08;;;;;;;3.01;2.37;;;;;;;18.71;40.33;99831.75;;;;-56
2019/12/11 13:51:08;;;;;;;2.75;2.34;;;;;;;18.71;40.35;99831.24;;;;-56
2019/12/11 13:54:08;;;;;;;2.71;2.43;;;;;;;18.71;40.34;99828.83;;;;-56
2019/12/11 13:57:08;;;;;;;3.10;2.37;;;;;;;18.70;40.35;99836.22;;;;-56
2019/12/11 14:00:08;;;;;;;2.66;2.36;;;;;;;18.71;40.34;99838.77;;;;-56
2019/12/11 14:03:08;;;;;;;2.79;2.43;;;;;;;18.70;40.37;99835.98;;;;-56
2019/12/11 14:06:08;;;;;;;3.05;2.41;;;;;;;18.69;40.34;99846.83;;;;-55
2019/12/11 14:09:08;;;;;;;2.80;2.31;;;;;;;18.69;40.39;99847.05;;;;-56
2019/12/11 14:12:08;;;;;;;2.81;2.39;;;;;;;18.69;40.38;99836.52;;;;-55
2019/12/11 14:15:08;;;;;;;2.83;2.35;;;;;;;18.69;40.37;99838.36;;;;-56
2019/12/11 14:18:08;;;;;;;2.62;2.28;;;;;;;18.69;40.41;99824.41;;;;-57
2019/12/11 14:21:11;;;;;;;3.07;2.40;;;;;;;18.68;40.39;99819.92;;;;-57
2019/12/11 14:24:14;;;;;;;2.57;2.25;;;;;;;18.68;40.41;99813.23;;;;-57
2019/12/11 14:27:08;;;;;;;2.88;2.47;;;;;;;18.67;40.42;99810.95;;;;-55
2019/12/11 14:30:09;;;;;;;2.46;2.24;;;;;;;18.67;40.39;99811.02;;;;-55
2019/12/11 14:33:08;;;;;;;3.03;2.48;;;;;;;18.66;40.42;99813.09;;;;-57
2019/12/11 14:36:08;;;;;;;2.75;2.23;;;;;;;18.66;40.37;99811.82;;;;-54
2019/12/11 14:39:13;;;;;;;2.94;2.42;;;;;;;18.66;40.40;99810.31;;;;-55
2019/12/11 14:42:08;;;;;;;3.11;2.40;;;;;;;18.66;40.38;99813.16;;;;-56
2019/12/11 14:45:11;;;;;;;3.39;2.33;;;;;;;18.65;40.42;99809.71;;;;-55
2019/12/11 14:48:08;;;;;;;2.62;2.18;;;;;;;18.65;40.41;99801.41;;;;-56
2019/12/11 14:51:08;;;;;;;2.80;2.33;;;;;;;18.65;40.42;99799.91;;;;-56
2019/12/11 14:54:08;;;;;;;2.51;2.23;;;;;;;18.64;40.46;99797.97;;;;-55
2019/12/11 14:57:08;;;;;;;2.85;2.23;;;;;;;18.64;40.47;99787.93;;;;-57
2019/12/11 15:00:08;;;;;;;3.49;2.23;;;;;;;18.64;40.46;99787.16;;;;-55
2019/12/11 15:03:08;;;;;;;3.27;2.39;;;;;;;18.64;40.46;99784.92;;;;-56
2019/12/11 15:06:08;;;;;;;3.19;2.42;;;;;;;18.63;40.44;99778.86;;;;-56
2019/12/11 15:09:08;;;;;;;2.95;2.39;;;;;;;18.64;40.41;99775.22;;;;-54
2019/12/11 15:12:08;;;;;;;2.81;2.32;;;;;;;18.62;40.45;99772.73;;;;-56
2019/12/11 15:15:08;;;;;;;2.55;2.32;;;;;;;18.62;40.45;99766.78;;;;-55
2019/12/11 15:18:08;;;;;;;2.77;2.26;;;;;;;18.62;40.45;99765.68;;;;-57
2019/12/11 15:21:08;;;;;;;3.05;2.55;;;;;;;18.61;40.47;99761.40;;;;-56
2019/12/11 15:24:08;;;;;;;3.10;2.59;;;;;;;18.61;40.46;99766.75;;;;-54
2019/12/11 15:27:08;;;;;;;2.97;2.29;;;;;;;18.62;40.48;99762.44;;;;-55
2019/12/11 15:30:08;;;;;;;2.59;2.38;;;;;;;18.62;40.45;99764.02;;;;-56
2019/12/11 15:33:12;;;;;;;2.82;2.52;;;;;;;18.61;40.47;99759.23;;;;-56
2019/12/11 15:36:12;;;;;;;2.62;2.40;;;;;;;18.61;40.45;99753.44;;;;-56
2019/12/11 15:39:08;;;;;;;2.73;2.41;;;;;;;18.62;40.46;99753.98;;;;-56
2019/12/11 15:42:08;;;;;;;2.81;2.26;;;;;;;18.62;40.44;99756.42;;;;-56
2019/12/11 15:45:08;;;;;;;2.79;2.47;;;;;;;18.62;40.44;99752.64;;;;-56
2019/12/11 15:48:10;;;;;;;2.83;2.37;;;;;;;18.61;40.47;99753.70;;;;-56
2019/12/11 15:51:09;;;;;;;2.61;2.21;;;;;;;18.62;40.43;99753.81;;;;-56
2019/12/11 15:54:08;;;;;;;2.79;2.49;;;;;;;18.61;40.48;99750.03;;;;-57
2019/12/11 15:57:08;;;;;;;2.93;2.53;;;;;;;18.62;40.50;99747.99;;;;-56
2019/12/11 16:00:11;;;;;;;3.73;2.52;;;;;;;18.61;40.49;99752.70;;;;-50
2019/12/11 16:03:08;;;;;;;3.03;2.50;;;;;;;18.62;40.49;99759.59;;;;-50
2019/12/11 16:06:08;;;;;;;2.83;2.29;;;;;;;18.61;40.47;99758.66;;;;-50
2019/12/11 16:09:08;;;;;;;3.01;2.40;;;;;;;18.61;40.49;99760.39;;;;-50
2019/12/11 16:12:08;;;;;;;3.27;2.27;;;;;;;18.61;40.48;99758.66;;;;-56
2019/12/11 16:15:08;;;;;;;2.59;2.39;;;;;;;18.61;40.48;99760.23;;;;-55
2019/12/11 16:18:08;;;;;;;2.89;2.48;;;;;;;18.61;40.47;99756.16;;;;-56
2019/12/11 16:21:08;;;;;;;3.12;2.49;;;;;;;18.62;40.49;99761.50;;;;-56
2019/12/11 16:24:08;;;;;;;2.65;2.21;;;;;;;18.61;40.50;99756.45;;;;-56
2019/12/11 16:27:08;;;;;;;3.08;2.49;;;;;;;18.61;40.48;99755.98;;;;-57
2019/12/11 16:30:08;;;;;;;2.59;2.35;;;;;;;18.61;40.49;99760.83;;;;-55
2019/12/11 16:33:08;;;;;;;3.17;2.50;;;;;;;18.61;40.48;99764.17;;;;-56
2019/12/11 16:36:08;;;;;;;2.55;2.35;;;;;;;18.62;40.46;99764.17;;;;-55
2019/12/11 16:39:08;;;;;;;2.93;2.61;;;;;;;18.61;40.50;99766.81;;;;-56
2019/12/11 16:42:08;;;;;;;2.89;2.37;;;;;;;18.61;40.48;99771.53;;;;-57
2019/12/11 16:45:08;;;;;;;3.10;2.74;;;;;;;18.62;40.47;99776.25;;;;-56
2019/12/11 16:48:08;;;;;;;2.80;2.42;;;;;;;18.61;40.50;99774.95;;;;-56
2019/12/11 16:51:08;;;;;;;2.73;2.43;;;;;;;18.61;40.43;99775.38;;;;-55
2019/12/11 16:54:08;;;;;;;2.80;2.50;;;;;;;18.61;40.49;99778.80;;;;-56
2019/12/11 16:57:08;;;;;;;2.69;2.43;;;;;;;18.60;40.48;99779.59;;;;-55
2019/12/11 17:00:08;;;;;;;2.77;2.45;;;;;;;18.60;40.50;99779.92;;;;-55
2019/12/11 17:03:08;;;;;;;3.09;2.69;;;;;;;18.61;40.49;99782.88;;;;-56
2019/12/11 17:06:09;;;;;;;3.07;2.54;;;;;;;18.61;40.48;99786.31;;;;-56
2019/12/11 17:09:08;;;;;;;3.05;2.63;;;;;;;18.60;40.50;99787.38;;;;-47
2019/12/11 17:12:08;;;;;;;2.70;2.39;;;;;;;18.60;40.48;99787.22;;;;-48